createdAt,value
2022-10-30T00:02:22.348Z,17.73
2022-10-30T00:04:48.842Z,18.90
2022-10-30T00:07:15.252Z,18.42
2022-10-30T00:09:41.666Z,17.27
2022-10-30T00:12:08.214Z,17.70
2022-10-30T00:14:34.669Z,15.55
2022-10-30T00:17:01.089Z,14.93
2022-10-30T00:19:27.515Z,15.65
2022-10-30T00:24:21.014Z,14.82
2022-10-30T00:26:48.082Z,13.15
2022-10-30T00:29:14.576Z,12.57
2022-10-30T00:31:41.122Z,12.10
2022-10-30T00:34:07.576Z,12.43
2022-10-30T00:36:34.019Z,13.98
2022-10-30T00:39:00.511Z,14.40
2022-10-30T00:41:26.999Z,13.90
2022-10-30T00:43:53.407Z,12.88
2022-10-30T00:46:40.905Z,12.75
2022-10-30T00:49:14.054Z,14.13
2022-10-30T00:51:46.376Z,16.15
2022-10-30T00:54:15.637Z,15.15
2022-10-30T00:56:43.188Z,16.38
2022-10-30T00:59:13.523Z,14.25
2022-10-30T01:01:43.620Z,13.80
2022-10-30T01:04:12.362Z,14.65
2022-10-30T01:06:41.163Z,11.95
2022-10-30T01:09:07.898Z,14.15
2022-10-30T01:11:34.493Z,14.68
2022-10-30T01:14:05.721Z,16.10
2022-10-30T01:19:26.441Z,13.60
2022-10-30T01:22:20.564Z,12.95
2022-10-30T01:24:54.104Z,14.75
2022-10-30T01:27:39.429Z,14.60
2022-10-30T01:30:15.188Z,12.40
2022-10-30T01:33:00.030Z,12.23
2022-10-30T01:36:08.373Z,13.80
2022-10-30T01:38:59.811Z,14.00
2022-10-30T01:43:57.500Z,15.10
2022-10-30T01:49:07.567Z,14.35
2022-10-30T01:51:49.404Z,14.02
2022-10-30T01:54:53.380Z,15.98
2022-10-30T01:57:28.971Z,15.77
2022-10-30T02:00:02.529Z,13.05
2022-10-30T02:02:30.520Z,14.38
2022-10-30T02:04:57.096Z,12.50
2022-10-30T02:07:23.792Z,13.35
2022-10-30T02:09:54.663Z,12.82
2022-10-30T02:12:23.065Z,12.52
2022-10-30T02:14:57.836Z,12.38
2022-10-30T02:17:25.014Z,14.30
2022-10-30T02:19:51.415Z,11.93
2022-10-30T02:22:18.183Z,12.68
2022-10-30T02:24:44.764Z,12.70
2022-10-30T02:27:11.657Z,12.38
2022-10-30T02:29:38.073Z,12.38
2022-10-30T02:32:04.679Z,10.98
2022-10-30T02:34:31.099Z,10.85
2022-10-30T02:36:57.498Z,12.20
2022-10-30T02:39:23.983Z,11.70
2022-10-30T02:41:50.513Z,13.18
2022-10-30T02:44:17.019Z,15.18
2022-10-30T02:46:43.479Z,13.98
2022-10-30T02:49:09.953Z,13.65
2022-10-30T02:51:36.449Z,14.68
2022-10-30T02:54:02.947Z,16.92
2022-10-30T02:56:29.445Z,14.80
2022-10-30T02:58:56.371Z,17.25
2022-10-30T03:01:23.104Z,14.98
2022-10-30T03:03:49.600Z,18.27
2022-10-30T03:06:17.306Z,18.60
2022-10-30T03:08:44.663Z,19.23
2022-10-30T03:11:16.473Z,18.23
2022-10-30T03:13:45.097Z,20.75
2022-10-30T03:16:14.687Z,17.95
2022-10-30T03:18:41.779Z,16.60
2022-10-30T03:21:10.188Z,16.50
2022-10-30T03:23:36.766Z,17.05
2022-10-30T03:26:04.079Z,16.38
2022-10-30T03:28:32.061Z,16.15
2022-10-30T03:31:00.681Z,15.60
2022-10-30T03:33:27.203Z,17.42
2022-10-30T03:35:53.630Z,15.27
2022-10-30T03:38:20.395Z,16.42
2022-10-30T03:40:46.883Z,17.10
2022-10-30T03:43:13.410Z,14.70
2022-10-30T03:45:40.011Z,13.88
2022-10-30T03:48:06.943Z,13.95
2022-10-30T03:50:33.450Z,15.55
2022-10-30T03:52:59.898Z,14.93
2022-10-30T03:55:26.357Z,14.40
2022-10-30T03:57:52.791Z,16.83
2022-10-30T04:00:19.620Z,19.02
2022-10-30T04:02:50.270Z,18.83
2022-10-30T04:05:19.147Z,19.88
2022-10-30T04:07:45.684Z,19.17
2022-10-30T04:10:14.247Z,20.20
2022-10-30T04:12:41.454Z,20.48
2022-10-30T04:15:09.203Z,18.02
2022-10-30T04:17:35.703Z,19.73
2022-10-30T04:20:02.168Z,21.27
2022-10-30T04:22:28.569Z,17.63
2022-10-30T04:24:55.032Z,19.02
2022-10-30T04:27:21.533Z,19.98
2022-10-30T04:29:47.999Z,17.88
2022-10-30T04:32:14.546Z,17.92
2022-10-30T04:34:41.114Z,20.00
2022-10-30T04:37:08.316Z,18.52
2022-10-30T04:39:34.760Z,18.17
2022-10-30T04:42:01.167Z,17.08
2022-10-30T04:44:27.628Z,19.17
2022-10-30T04:46:54.080Z,20.25
2022-10-30T04:49:20.480Z,20.55
2022-10-30T04:51:47.378Z,22.00
2022-10-30T04:54:13.852Z,20.55
2022-10-30T04:56:40.291Z,19.02
2022-10-30T04:59:06.779Z,19.55
2022-10-30T05:01:33.286Z,19.45
2022-10-30T05:03:59.804Z,19.23
2022-10-30T05:06:27.759Z,19.73
2022-10-30T05:08:55.726Z,18.70
2022-10-30T05:11:22.529Z,21.15
2022-10-30T05:13:48.971Z,20.73
2022-10-30T05:16:15.470Z,19.48
2022-10-30T05:18:42.015Z,21.25
2022-10-30T05:21:09.531Z,19.38
2022-10-30T05:23:36.004Z,20.42
2022-10-30T05:26:02.779Z,19.67
2022-10-30T05:28:29.287Z,17.73
2022-10-30T05:30:56.715Z,20.60
2022-10-30T05:33:23.706Z,20.90
2022-10-30T05:35:50.258Z,23.60
2022-10-30T05:38:16.775Z,24.30
2022-10-30T05:40:46.579Z,23.30
2022-10-30T05:43:13.039Z,22.40
2022-10-30T05:45:39.411Z,23.85
2022-10-30T05:48:07.304Z,21.65
2022-10-30T05:50:34.269Z,21.67
2022-10-30T05:53:02.797Z,23.10
2022-10-30T05:55:29.583Z,22.27
2022-10-30T05:58:01.030Z,24.23
2022-10-30T06:00:29.508Z,20.42
2022-10-30T06:03:04.209Z,22.05
2022-10-30T06:05:32.945Z,22.25
2022-10-30T06:07:59.605Z,22.27
2022-10-30T06:10:26.934Z,24.77
2022-10-30T06:12:58.469Z,24.77
2022-10-30T06:15:26.044Z,23.17
2022-10-30T06:17:52.844Z,21.75
2022-10-30T06:20:21.811Z,22.50
2022-10-30T06:22:59.892Z,22.15
2022-10-30T06:25:27.738Z,21.48
2022-10-30T06:27:54.226Z,22.17
2022-10-30T06:30:21.385Z,20.45
2022-10-30T06:32:48.262Z,23.08
2022-10-30T06:35:14.872Z,21.88
2022-10-30T06:37:48.657Z,23.75
2022-10-30T06:40:16.431Z,21.05
2022-10-30T06:42:47.039Z,21.23
2022-10-30T06:45:14.938Z,22.67
2022-10-30T06:47:41.956Z,19.15
2022-10-30T06:50:11.342Z,21.05
2022-10-30T06:52:37.810Z,20.92
2022-10-30T06:55:04.943Z,19.90
2022-10-30T06:57:31.804Z,20.95
2022-10-30T06:59:58.245Z,20.15
2022-10-30T07:02:24.935Z,22.33
2022-10-30T07:04:51.456Z,21.75
2022-10-30T07:07:17.990Z,22.38
2022-10-30T07:09:46.531Z,20.55
2022-10-30T07:12:13.491Z,21.23
2022-10-30T07:14:39.893Z,23.50
2022-10-30T07:17:06.317Z,22.30
2022-10-30T07:19:32.819Z,23.77
2022-10-30T07:22:01.119Z,22.98
2022-10-30T07:24:27.609Z,23.20
2022-10-30T07:26:55.477Z,22.45
2022-10-30T07:29:21.939Z,24.50
2022-10-30T07:32:01.535Z,26.45
2022-10-30T07:34:29.019Z,24.92
2022-10-30T07:36:55.435Z,23.05
2022-10-30T07:39:21.884Z,26.20
2022-10-30T07:41:51.152Z,22.35
2022-10-30T07:44:18.859Z,26.25
2022-10-30T07:46:45.318Z,26.75
2022-10-30T07:49:11.722Z,24.67
2022-10-30T07:51:38.122Z,24.15
2022-10-30T07:54:04.566Z,24.45
2022-10-30T07:56:31.195Z,29.17
2022-10-30T07:58:57.617Z,32.50
2022-10-30T08:01:24.124Z,26.08
2022-10-30T08:03:50.664Z,23.77
2022-10-30T08:06:20.016Z,23.48
2022-10-30T08:08:49.490Z,22.33
2022-10-30T08:11:15.943Z,22.48
2022-10-30T08:13:42.420Z,22.77
2022-10-30T08:16:08.894Z,19.95
2022-10-30T08:18:35.399Z,19.30
2022-10-30T08:21:01.824Z,17.40
2022-10-30T08:23:28.267Z,16.95
2022-10-30T08:25:57.387Z,15.23
2022-10-30T08:28:26.931Z,16.63
2022-10-30T08:30:58.204Z,14.55
2022-10-30T08:33:24.784Z,14.18
2022-10-30T08:35:53.193Z,14.73
2022-10-30T08:38:20.028Z,12.90
2022-10-30T08:40:46.533Z,13.43
2022-10-30T08:43:13.698Z,13.27
2022-10-30T08:45:41.092Z,11.63
2022-10-30T08:48:10.309Z,14.50
2022-10-30T08:50:36.961Z,13.63
2022-10-30T08:53:05.730Z,14.23
2022-10-30T08:55:33.188Z,12.43
2022-10-30T08:58:00.230Z,13.55
2022-10-30T09:00:27.493Z,12.88
2022-10-30T09:02:54.272Z,11.75
2022-10-30T09:05:21.192Z,13.45
2022-10-30T09:07:48.162Z,12.13
2022-10-30T09:10:15.312Z,12.15
2022-10-30T09:12:41.774Z,13.82
2022-10-30T09:15:08.826Z,13.35
2022-10-30T09:17:35.275Z,11.20
2022-10-30T09:20:01.726Z,10.32
2022-10-30T09:22:28.142Z,13.00
2022-10-30T09:24:54.628Z,11.35
2022-10-30T09:27:21.056Z,11.70
2022-10-30T09:29:47.440Z,11.55
2022-10-30T09:32:13.834Z,11.30
2022-10-30T09:34:40.990Z,12.82
2022-10-30T09:37:08.318Z,11.88
2022-10-30T09:39:34.795Z,11.60
2022-10-30T09:42:16.469Z,10.55
2022-10-30T09:45:23.231Z,11.35
2022-10-30T09:48:34.064Z,13.32
2022-10-30T09:51:15.605Z,10.93
2022-10-30T09:54:02.720Z,11.20
2022-10-30T09:56:44.481Z,10.80
2022-10-30T09:59:42.409Z,9.25
2022-10-30T10:02:38.217Z,10.10
2022-10-30T10:05:21.379Z,10.70
2022-10-30T10:07:52.556Z,10.02
2022-10-30T10:10:35.522Z,11.90
2022-10-30T10:13:04.303Z,11.15
2022-10-30T10:15:51.452Z,12.43
2022-10-30T10:18:35.446Z,10.40
2022-10-30T10:21:09.277Z,9.05
2022-10-30T10:23:48.552Z,10.88
2022-10-30T10:26:23.763Z,11.20
2022-10-30T10:28:59.177Z,12.10
2022-10-30T10:32:10.335Z,11.00
2022-10-30T10:34:45.567Z,12.35
2022-10-30T10:37:31.483Z,10.65
2022-10-30T10:40:28.336Z,11.18
2022-10-30T10:43:13.133Z,9.77
2022-10-30T10:46:05.747Z,10.48
2022-10-30T10:48:59.367Z,11.32
2022-10-30T10:51:40.802Z,12.88
2022-10-30T10:56:41.791Z,11.52
2022-10-30T10:59:18.536Z,11.13
2022-10-30T11:02:03.191Z,11.32
2022-10-30T11:04:39.110Z,12.73
2022-10-30T11:07:29.478Z,11.32
2022-10-30T11:09:57.521Z,13.15
2022-10-30T11:12:33.671Z,11.65
2022-10-30T11:15:21.636Z,12.15
2022-10-30T11:17:59.986Z,12.32
2022-10-30T11:20:31.428Z,12.68
2022-10-30T11:22:57.988Z,11.93
2022-10-30T11:25:30.345Z,12.02
2022-10-30T11:28:00.873Z,12.75
2022-10-30T11:30:31.389Z,13.32
2022-10-30T11:32:59.447Z,11.13
2022-10-30T11:35:26.323Z,13.95
2022-10-30T11:38:15.414Z,12.15
2022-10-30T11:40:48.489Z,12.30
2022-10-30T11:43:22.340Z,12.38
2022-10-30T11:46:42.929Z,12.40
2022-10-30T11:49:25.568Z,12.27
2022-10-30T11:51:53.254Z,12.48
2022-10-30T11:54:21.857Z,13.35
2022-10-30T11:57:31.266Z,12.02
2022-10-30T12:00:02.248Z,11.45
2022-10-30T12:02:41.003Z,12.05
2022-10-30T12:06:03.440Z,10.32
2022-10-30T12:08:43.237Z,12.48
2022-10-30T12:11:09.694Z,13.07
2022-10-30T12:13:39.565Z,10.63
2022-10-30T12:16:19.102Z,11.52
2022-10-30T12:18:59.195Z,11.27
2022-10-30T12:21:28.220Z,11.07
2022-10-30T12:24:03.462Z,10.27
2022-10-30T12:26:30.700Z,11.70
2022-10-30T12:30:09.256Z,10.80
2022-10-30T12:33:25.648Z,10.65
2022-10-30T12:35:58.052Z,10.63
2022-10-30T12:38:36.960Z,9.75
2022-10-30T12:41:19.888Z,11.98
2022-10-30T12:43:57.889Z,10.60
2022-10-30T12:46:47.065Z,10.02
2022-10-30T12:49:13.431Z,11.70
2022-10-30T12:51:52.792Z,10.50
2022-10-30T12:54:32.401Z,10.93
2022-10-30T12:57:14.872Z,11.93
2022-10-30T12:59:56.992Z,10.93
2022-10-30T13:03:01.080Z,10.55
2022-10-30T13:05:46.844Z,11.27
2022-10-30T13:08:38.668Z,11.43
2022-10-30T13:11:33.761Z,10.35
2022-10-30T13:14:55.968Z,10.15
2022-10-30T13:17:22.476Z,11.55
2022-10-30T13:19:48.954Z,11.55
2022-10-30T13:22:15.362Z,11.60
2022-10-30T13:25:10.628Z,12.32
2022-10-30T13:27:46.026Z,11.05
2022-10-30T13:30:19.388Z,10.32
2022-10-30T13:32:57.368Z,9.65
2022-10-30T13:35:39.044Z,11.23
2022-10-30T13:38:16.870Z,10.18
2022-10-30T13:40:50.796Z,10.75
2022-10-30T13:43:43.343Z,9.63
2022-10-30T13:47:05.496Z,12.93
2022-10-30T13:49:37.691Z,9.15
2022-10-30T13:52:14.198Z,9.23
2022-10-30T13:54:47.337Z,10.25
2022-10-30T13:57:38.547Z,9.10
2022-10-30T14:00:21.489Z,9.52
2022-10-30T14:03:25.824Z,10.77
2022-10-30T14:06:04.548Z,9.70
2022-10-30T14:08:54.759Z,9.68
2022-10-30T14:11:21.226Z,8.90
2022-10-30T14:13:55.156Z,8.43
2022-10-30T14:17:13.566Z,7.47
2022-10-30T14:20:13.760Z,8.25
2022-10-30T14:22:41.086Z,7.90
2022-10-30T14:25:16.197Z,10.35
2022-10-30T14:27:42.721Z,8.00
2022-10-30T14:30:18.764Z,8.13
2022-10-30T14:32:52.777Z,7.20
2022-10-30T14:35:39.493Z,8.48
2022-10-30T14:38:08.852Z,6.88
2022-10-30T14:40:41.802Z,6.75
2022-10-30T14:47:06.519Z,7.45
2022-10-30T14:49:47.513Z,7.53
2022-10-30T14:55:20.929Z,6.43
2022-10-30T14:58:18.683Z,6.20
2022-10-30T15:00:45.320Z,6.47
2022-10-30T15:03:26.323Z,6.28
2022-10-30T15:08:40.344Z,6.47
2022-10-30T15:11:25.535Z,5.88
2022-10-30T15:13:58.362Z,5.68
2022-10-30T15:16:27.701Z,6.40
2022-10-30T15:19:07.309Z,7.35
2022-10-30T15:21:42.630Z,6.47
2022-10-30T15:24:17.115Z,6.80
2022-10-30T15:26:50.361Z,9.48
2022-10-30T15:29:20.996Z,9.13
2022-10-30T15:32:00.217Z,7.95
2022-10-30T15:34:30.915Z,8.52
2022-10-30T15:36:57.483Z,7.78
2022-10-30T15:39:23.991Z,8.43
2022-10-30T15:41:57.499Z,7.20
2022-10-30T15:44:36.459Z,7.65
2022-10-30T15:47:05.288Z,7.13
2022-10-30T15:49:37.756Z,8.88
2022-10-30T15:52:16.966Z,7.22
2022-10-30T15:54:45.378Z,8.85
2022-10-30T15:57:49.487Z,8.40
2022-10-30T16:00:08.309Z,9.75
2022-10-30T16:02:36.742Z,8.93
2022-10-30T16:05:20.209Z,8.30
2022-10-30T16:07:47.182Z,8.77
2022-10-30T16:10:20.550Z,10.13
2022-10-30T16:12:47.847Z,8.85
2022-10-30T16:15:39.626Z,7.55
2022-10-30T16:18:13.625Z,8.40
2022-10-30T16:20:43.273Z,10.15
2022-10-30T16:23:10.247Z,7.50
2022-10-30T16:25:46.959Z,11.40
2022-10-30T16:28:39.674Z,8.32
2022-10-30T16:31:14.287Z,8.80
2022-10-30T16:33:44.464Z,8.77
2022-10-30T16:36:16.743Z,10.90
2022-10-30T16:38:46.037Z,10.00
2022-10-30T16:41:16.108Z,9.35
2022-10-30T16:44:03.414Z,9.10
2022-10-30T16:46:37.941Z,9.13
2022-10-30T16:49:12.289Z,9.75
2022-10-30T16:51:40.026Z,10.82
2022-10-30T16:54:07.991Z,12.27
2022-10-30T16:56:34.473Z,11.38
2022-10-30T16:59:14.974Z,11.75
2022-10-30T17:01:41.620Z,11.80
2022-10-30T17:06:47.306Z,9.07
2022-10-30T17:09:28.622Z,10.73
2022-10-30T17:12:21.283Z,9.48
2022-10-30T17:14:55.721Z,11.32
2022-10-30T17:17:28.375Z,12.35
2022-10-30T17:20:05.687Z,10.80
2022-10-30T17:22:32.933Z,10.90
2022-10-30T17:25:00.103Z,12.45
2022-10-30T17:27:32.256Z,11.07
2022-10-30T17:29:58.709Z,10.85
2022-10-30T17:32:42.619Z,11.07
2022-10-30T17:35:18.118Z,12.45
2022-10-30T17:37:44.645Z,12.45
2022-10-30T17:40:13.095Z,11.27
2022-10-30T17:42:40.178Z,10.25
2022-10-30T17:45:11.063Z,11.27
2022-10-30T17:47:37.994Z,10.75
2022-10-30T17:50:05.554Z,10.93
2022-10-30T17:52:34.548Z,9.85
2022-10-30T17:55:02.180Z,12.05
2022-10-30T17:57:28.830Z,9.57
2022-10-30T17:59:55.350Z,12.68
2022-10-30T18:02:23.402Z,11.50
2022-10-30T18:04:50.460Z,11.65
2022-10-30T18:07:17.498Z,10.07
2022-10-30T18:09:44.583Z,10.60
2022-10-30T18:12:16.322Z,11.88
2022-10-30T18:14:43.187Z,14.25
2022-10-30T18:17:10.581Z,11.35
2022-10-30T18:19:36.989Z,12.60
2022-10-30T18:22:03.526Z,12.77
2022-10-30T18:24:30.016Z,10.93
2022-10-30T18:26:56.818Z,13.05
2022-10-30T18:29:23.612Z,12.30
2022-10-30T18:31:50.108Z,12.38
2022-10-30T18:34:21.032Z,17.85
2022-10-30T18:36:48.465Z,23.75
2022-10-30T18:39:14.922Z,40.85
2022-10-30T18:41:43.669Z,47.33
2022-10-30T18:44:17.779Z,75.93
2022-10-30T18:46:45.206Z,78.70
2022-10-30T18:49:12.071Z,86.70
2022-10-30T18:51:39.103Z,57.97
2022-10-30T18:54:16.371Z,30.70
2022-10-30T18:56:43.522Z,48.03
2022-10-30T18:59:10.058Z,23.20
2022-10-30T19:01:37.434Z,21.70
2022-10-30T19:04:08.961Z,18.95
2022-10-30T19:06:37.527Z,20.95
2022-10-30T19:09:04.122Z,14.82
2022-10-30T19:11:31.802Z,10.70
2022-10-30T19:13:59.319Z,14.40
2022-10-30T19:16:25.844Z,13.65
2022-10-30T19:18:52.728Z,15.43
2022-10-30T19:21:21.579Z,16.08
2022-10-30T19:23:48.357Z,13.13
2022-10-30T19:26:16.199Z,12.52
2022-10-30T19:28:43.541Z,10.60
2022-10-30T19:31:14.925Z,11.70
2022-10-30T19:33:41.900Z,13.73
2022-10-30T19:36:27.015Z,11.75
2022-10-30T19:38:54.006Z,11.60
2022-10-30T19:41:20.607Z,11.68
2022-10-30T19:43:47.069Z,11.48
2022-10-30T19:46:15.115Z,11.18
2022-10-30T19:48:58.714Z,13.38
2022-10-30T19:51:27.132Z,13.10
2022-10-30T19:53:53.869Z,12.68
2022-10-30T19:56:21.217Z,14.85
2022-10-30T19:58:47.970Z,17.65
2022-10-30T20:01:14.761Z,16.17
2022-10-30T20:03:41.631Z,15.82
2022-10-30T20:06:11.924Z,15.98
2022-10-30T20:08:38.536Z,16.50
2022-10-30T20:11:05.115Z,15.63
2022-10-30T20:13:33.171Z,15.45
2022-10-30T20:16:02.476Z,15.77
2022-10-30T20:18:31.602Z,16.00
2022-10-30T20:21:00.370Z,18.17
2022-10-30T20:23:27.982Z,15.43
2022-10-30T20:25:59.815Z,14.13
2022-10-30T20:28:26.131Z,15.75
2022-10-30T20:30:53.816Z,14.75
2022-10-30T20:33:21.102Z,17.17
2022-10-30T20:35:49.206Z,17.08
2022-10-30T20:38:20.347Z,14.60
2022-10-30T20:43:17.171Z,13.25
2022-10-30T20:45:44.135Z,15.38
2022-10-30T20:48:11.289Z,15.68
2022-10-30T20:50:38.195Z,14.93
2022-10-30T20:53:05.589Z,14.00
2022-10-30T20:55:34.759Z,12.75
2022-10-30T20:58:02.704Z,12.73
2022-10-30T21:00:29.782Z,12.85
2022-10-30T21:02:56.261Z,13.35
2022-10-30T21:05:42.703Z,12.07
2022-10-30T21:08:09.151Z,12.38
2022-10-30T21:10:39.160Z,11.73
2022-10-30T21:13:08.936Z,12.20
2022-10-30T21:15:41.361Z,12.32
2022-10-30T21:18:09.211Z,13.27
2022-10-30T21:20:36.497Z,13.27
2022-10-30T21:23:03.073Z,13.23
2022-10-30T21:25:31.459Z,11.23
2022-10-30T21:27:58.442Z,11.48
2022-10-30T21:30:25.104Z,11.57
2022-10-30T21:32:51.667Z,11.13
2022-10-30T21:35:18.220Z,10.63
2022-10-30T21:37:44.617Z,15.82
2022-10-30T21:40:11.754Z,11.80
2022-10-30T21:42:39.551Z,12.75
2022-10-30T21:45:06.746Z,11.23
2022-10-30T21:47:33.156Z,12.07
2022-10-30T21:49:59.620Z,11.55
2022-10-30T21:52:26.092Z,11.65
2022-10-30T21:54:52.555Z,14.57
2022-10-30T21:57:19.015Z,10.23
2022-10-30T21:59:45.457Z,12.65
2022-10-30T22:02:15.220Z,10.93
2022-10-30T22:04:41.877Z,11.98
2022-10-30T22:07:08.556Z,9.00
2022-10-30T22:09:34.998Z,12.02
2022-10-30T22:12:01.400Z,11.93
2022-10-30T22:14:28.457Z,14.98
2022-10-30T22:16:54.887Z,16.60
2022-10-30T22:19:21.489Z,15.57
2022-10-30T22:21:47.920Z,17.10
2022-10-30T22:24:14.494Z,14.82
2022-10-30T22:26:41.003Z,11.68
2022-10-30T22:29:07.432Z,13.05
2022-10-30T22:31:34.014Z,11.45
2022-10-30T22:34:01.083Z,11.82
2022-10-30T22:36:30.527Z,13.60
2022-10-30T22:39:03.433Z,15.48
2022-10-30T22:41:34.455Z,17.50
2022-10-30T22:44:07.420Z,14.90
2022-10-30T22:46:34.346Z,13.40
2022-10-30T22:49:00.738Z,14.70
2022-10-30T22:51:27.207Z,16.75
2022-10-30T22:53:59.448Z,17.35
2022-10-30T22:56:28.258Z,19.35
2022-10-30T22:58:55.441Z,16.75
2022-10-30T23:01:33.408Z,15.55
2022-10-30T23:04:01.521Z,13.65
2022-10-30T23:06:29.982Z,13.23
2022-10-30T23:08:58.611Z,15.25
2022-10-30T23:11:26.085Z,12.77
2022-10-30T23:13:52.779Z,12.70
2022-10-30T23:16:23.446Z,12.00
2022-10-30T23:18:51.263Z,8.43
2022-10-30T23:21:24.468Z,9.85
2022-10-30T23:23:51.728Z,11.55
2022-10-30T23:26:30.136Z,11.30
2022-10-30T23:28:58.256Z,10.43
2022-10-30T23:31:34.592Z,10.85
2022-10-30T23:34:03.851Z,9.63
2022-10-30T23:36:30.592Z,9.65
2022-10-30T23:38:59.529Z,11.18
2022-10-30T23:41:28.577Z,10.35
2022-10-30T23:44:06.347Z,9.63
2022-10-30T23:46:34.035Z,8.88
2022-10-30T23:49:00.553Z,9.25
2022-10-30T23:51:26.971Z,9.60
2022-10-30T23:53:53.483Z,8.43
2022-10-30T23:56:20.981Z,8.95
2022-10-30T23:58:49.363Z,11.68
